sensor_id;sensor_type;location;lat;lon;timestamp;temperature;humidity
52034;DHT22;38045;52.988;6.536;2023-11-18T00:01:08;1.80;76.00
52034;DHT22;38045;52.988;6.536;2023-11-18T00:03:34;1.80;76.10
52034;DHT22;38045;52.988;6.536;2023-11-18T00:06:00;1.80;76.10
52034;DHT22;38045;52.988;6.536;2023-11-18T00:08:26;1.80;76.20
52034;DHT22;38045;52.988;6.536;2023-11-18T00:10:51;1.80;76.10
52034;DHT22;38045;52.988;6.536;2023-11-18T00:13:17;1.70;75.90
52034;DHT22;38045;52.988;6.536;2023-11-18T00:15:42;1.80;76.10
52034;DHT22;38045;52.988;6.536;2023-11-18T00:18:11;1.90;76.20
52034;DHT22;38045;52.988;6.536;2023-11-18T00:20:37;1.90;76.10
52034;DHT22;38045;52.988;6.536;2023-11-18T00:23:02;1.90;76.20
52034;DHT22;38045;52.988;6.536;2023-11-18T00:25:30;1.90;76.10
52034;DHT22;38045;52.988;6.536;2023-11-18T00:27:57;1.90;76.10
52034;DHT22;38045;52.988;6.536;2023-11-18T00:30:22;1.90;76.20
52034;DHT22;38045;52.988;6.536;2023-11-18T00:32:48;2.00;76.20
52034;DHT22;38045;52.988;6.536;2023-11-18T00:35:13;2.00;76.30
52034;DHT22;38045;52.988;6.536;2023-11-18T00:37:40;2.00;76.50
52034;DHT22;38045;52.988;6.536;2023-11-18T00:40:07;2.00;76.40
52034;DHT22;38045;52.988;6.536;2023-11-18T00:42:33;2.00;76.40
52034;DHT22;38045;52.988;6.536;2023-11-18T00:44:59;2.00;76.20
52034;DHT22;38045;52.988;6.536;2023-11-18T00:47:24;2.00;76.20
52034;DHT22;38045;52.988;6.536;2023-11-18T00:49:50;2.00;76.30
52034;DHT22;38045;52.988;6.536;2023-11-18T00:52:17;2.00;76.40
52034;DHT22;38045;52.988;6.536;2023-11-18T00:54:43;2.10;76.50
52034;DHT22;38045;52.988;6.536;2023-11-18T00:57:09;2.10;76.70
52034;DHT22;38045;52.988;6.536;2023-11-18T00:59:35;2.10;76.60
52034;DHT22;38045;52.988;6.536;2023-11-18T01:02:00;2.10;77.10
52034;DHT22;38045;52.988;6.536;2023-11-18T01:04:28;2.10;77.10
52034;DHT22;38045;52.988;6.536;2023-11-18T01:06:54;2.10;77.10
52034;DHT22;38045;52.988;6.536;2023-11-18T01:09:20;2.10;76.70
52034;DHT22;38045;52.988;6.536;2023-11-18T01:11:45;2.10;76.50
52034;DHT22;38045;52.988;6.536;2023-11-18T01:14:11;2.10;76.50
52034;DHT22;38045;52.988;6.536;2023-11-18T01:16:37;2.10;76.40
52034;DHT22;38045;52.988;6.536;2023-11-18T01:19:03;2.10;76.50
52034;DHT22;38045;52.988;6.536;2023-11-18T01:21:28;2.10;76.40
52034;DHT22;38045;52.988;6.536;2023-11-18T01:23:54;2.10;76.70
52034;DHT22;38045;52.988;6.536;2023-11-18T01:26:20;2.10;77.00
52034;DHT22;38045;52.988;6.536;2023-11-18T01:28:47;2.00;77.50
52034;DHT22;38045;52.988;6.536;2023-11-18T01:31:12;2.00;77.20
52034;DHT22;38045;52.988;6.536;2023-11-18T01:33:39;2.00;77.00
52034;DHT22;38045;52.988;6.536;2023-11-18T01:36:07;2.10;76.70
52034;DHT22;38045;52.988;6.536;2023-11-18T01:38:36;2.00;76.90
52034;DHT22;38045;52.988;6.536;2023-11-18T01:41:05;2.00;76.90
52034;DHT22;38045;52.988;6.536;2023-11-18T01:43:31;2.00;76.90
52034;DHT22;38045;52.988;6.536;2023-11-18T01:46:01;2.00;76.80
52034;DHT22;38045;52.988;6.536;2023-11-18T01:48:29;2.00;76.90
52034;DHT22;38045;52.988;6.536;2023-11-18T01:50:57;2.00;77.00
52034;DHT22;38045;52.988;6.536;2023-11-18T01:53:24;2.00;77.10
52034;DHT22;38045;52.988;6.536;2023-11-18T01:55:50;2.00;77.30
52034;DHT22;38045;52.988;6.536;2023-11-18T01:58:16;2.00;77.60
52034;DHT22;38045;52.988;6.536;2023-11-18T02:00:45;2.00;77.50
52034;DHT22;38045;52.988;6.536;2023-11-18T02:03:15;1.90;77.70
52034;DHT22;38045;52.988;6.536;2023-11-18T02:05:40;2.00;77.70
52034;DHT22;38045;52.988;6.536;2023-11-18T02:08:08;1.90;77.70
52034;DHT22;38045;52.988;6.536;2023-11-18T02:10:36;1.90;77.80
52034;DHT22;38045;52.988;6.536;2023-11-18T02:13:12;1.90;77.60
52034;DHT22;38045;52.988;6.536;2023-11-18T02:15:38;1.90;77.40
52034;DHT22;38045;52.988;6.536;2023-11-18T02:18:06;1.90;78.10
52034;DHT22;38045;52.988;6.536;2023-11-18T02:20:36;1.90;78.00
52034;DHT22;38045;52.988;6.536;2023-11-18T02:23:02;1.90;78.40
52034;DHT22;38045;52.988;6.536;2023-11-18T02:25:29;1.90;78.40
52034;DHT22;38045;52.988;6.536;2023-11-18T02:27:58;1.90;78.40
52034;DHT22;38045;52.988;6.536;2023-11-18T02:30:24;1.90;78.40
52034;DHT22;38045;52.988;6.536;2023-11-18T02:35:30;1.90;78.70
52034;DHT22;38045;52.988;6.536;2023-11-18T02:38:00;1.90;79.00
52034;DHT22;38045;52.988;6.536;2023-11-18T02:40:36;1.90;78.80
52034;DHT22;38045;52.988;6.536;2023-11-18T02:43:04;1.90;78.90
52034;DHT22;38045;52.988;6.536;2023-11-18T02:45:35;1.90;78.40
52034;DHT22;38045;52.988;6.536;2023-11-18T02:48:02;2.00;78.50
52034;DHT22;38045;52.988;6.536;2023-11-18T02:50:28;2.00;78.30
52034;DHT22;38045;52.988;6.536;2023-11-18T02:52:54;2.00;78.40
52034;DHT22;38045;52.988;6.536;2023-11-18T02:55:20;2.00;78.70
52034;DHT22;38045;52.988;6.536;2023-11-18T02:57:50;2.00;79.00
52034;DHT22;38045;52.988;6.536;2023-11-18T03:00:17;2.00;79.00
52034;DHT22;38045;52.988;6.536;2023-11-18T03:02:49;2.00;79.20
52034;DHT22;38045;52.988;6.536;2023-11-18T03:05:17;2.00;79.20
52034;DHT22;38045;52.988;6.536;2023-11-18T03:07:46;2.00;79.20
52034;DHT22;38045;52.988;6.536;2023-11-18T03:10:16;2.00;79.10
52034;DHT22;38045;52.988;6.536;2023-11-18T03:12:49;2.00;79.00
52034;DHT22;38045;52.988;6.536;2023-11-18T03:15:16;2.00;78.70
52034;DHT22;38045;52.988;6.536;2023-11-18T03:17:53;2.10;78.70
52034;DHT22;38045;52.988;6.536;2023-11-18T03:20:21;2.10;78.60
52034;DHT22;38045;52.988;6.536;2023-11-18T03:22:48;2.10;78.70
52034;DHT22;38045;52.988;6.536;2023-11-18T03:25:15;2.10;78.90
52034;DHT22;38045;52.988;6.536;2023-11-18T03:27:42;2.20;78.60
52034;DHT22;38045;52.988;6.536;2023-11-18T03:30:08;2.20;78.70
52034;DHT22;38045;52.988;6.536;2023-11-18T03:32:35;2.20;78.70
52034;DHT22;38045;52.988;6.536;2023-11-18T03:35:06;2.20;78.70
52034;DHT22;38045;52.988;6.536;2023-11-18T03:37:41;2.20;78.90
52034;DHT22;38045;52.988;6.536;2023-11-18T03:40:11;2.30;78.80
52034;DHT22;38045;52.988;6.536;2023-11-18T03:42:38;2.30;78.90
52034;DHT22;38045;52.988;6.536;2023-11-18T03:45:05;2.40;78.70
52034;DHT22;38045;52.988;6.536;2023-11-18T03:47:31;2.40;78.40
52034;DHT22;38045;52.988;6.536;2023-11-18T03:49:57;2.40;78.40
52034;DHT22;38045;52.988;6.536;2023-11-18T03:52:23;2.50;78.60
52034;DHT22;38045;52.988;6.536;2023-11-18T03:54:49;2.50;78.50
52034;DHT22;38045;52.988;6.536;2023-11-18T03:57:15;2.50;78.70
52034;DHT22;38045;52.988;6.536;2023-11-18T03:59:40;2.50;78.50
52034;DHT22;38045;52.988;6.536;2023-11-18T04:02:07;2.50;78.50
52034;DHT22;38045;52.988;6.536;2023-11-18T04:04:32;2.50;78.50
52034;DHT22;38045;52.988;6.536;2023-11-18T04:06:58;2.50;78.60
52034;DHT22;38045;52.988;6.536;2023-11-18T04:09:26;2.50;78.50
52034;DHT22;38045;52.988;6.536;2023-11-18T04:11:52;2.50;78.70
52034;DHT22;38045;52.988;6.536;2023-11-18T04:14:18;2.50;78.70
52034;DHT22;38045;52.988;6.536;2023-11-18T04:16:47;2.50;78.70
52034;DHT22;38045;52.988;6.536;2023-11-18T04:19:13;2.50;78.90
52034;DHT22;38045;52.988;6.536;2023-11-18T04:21:38;2.60;78.80
52034;DHT22;38045;52.988;6.536;2023-11-18T04:24:05;2.60;79.30
52034;DHT22;38045;52.988;6.536;2023-11-18T04:26:31;2.60;79.10
52034;DHT22;38045;52.988;6.536;2023-11-18T04:28:57;2.60;79.10
52034;DHT22;38045;52.988;6.536;2023-11-18T04:31:24;2.60;79.20
52034;DHT22;38045;52.988;6.536;2023-11-18T04:33:49;2.70;79.40
52034;DHT22;38045;52.988;6.536;2023-11-18T04:36:15;2.70;79.00
52034;DHT22;38045;52.988;6.536;2023-11-18T04:38:42;2.70;78.90
52034;DHT22;38045;52.988;6.536;2023-11-18T04:41:08;2.70;79.00
52034;DHT22;38045;52.988;6.536;2023-11-18T04:43:33;2.70;79.20
52034;DHT22;38045;52.988;6.536;2023-11-18T04:45:59;2.80;79.30
52034;DHT22;38045;52.988;6.536;2023-11-18T04:48:25;2.80;79.00
52034;DHT22;38045;52.988;6.536;2023-11-18T04:50:50;2.90;79.10
52034;DHT22;38045;52.988;6.536;2023-11-18T04:53:16;2.90;79.20
52034;DHT22;38045;52.988;6.536;2023-11-18T04:55:41;2.90;79.20
52034;DHT22;38045;52.988;6.536;2023-11-18T04:58:07;2.90;79.30
52034;DHT22;38045;52.988;6.536;2023-11-18T05:00:38;3.00;79.10
52034;DHT22;38045;52.988;6.536;2023-11-18T05:03:04;3.00;79.40
52034;DHT22;38045;52.988;6.536;2023-11-18T05:05:31;3.00;79.30
52034;DHT22;38045;52.988;6.536;2023-11-18T05:07:57;3.10;79.20
52034;DHT22;38045;52.988;6.536;2023-11-18T05:10:23;3.10;79.20
52034;DHT22;38045;52.988;6.536;2023-11-18T05:12:49;3.10;79.50
52034;DHT22;38045;52.988;6.536;2023-11-18T05:15:21;3.10;79.40
52034;DHT22;38045;52.988;6.536;2023-11-18T05:17:53;3.10;79.30
52034;DHT22;38045;52.988;6.536;2023-11-18T05:20:19;3.20;79.30
52034;DHT22;38045;52.988;6.536;2023-11-18T05:22:45;3.20;79.50
52034;DHT22;38045;52.988;6.536;2023-11-18T05:25:11;3.20;79.60
52034;DHT22;38045;52.988;6.536;2023-11-18T05:27:37;3.20;79.60
52034;DHT22;38045;52.988;6.536;2023-11-18T05:30:06;3.30;79.40
52034;DHT22;38045;52.988;6.536;2023-11-18T05:32:32;3.30;79.50
52034;DHT22;38045;52.988;6.536;2023-11-18T05:34:58;3.30;79.40
52034;DHT22;38045;52.988;6.536;2023-11-18T05:37:24;3.30;79.70
52034;DHT22;38045;52.988;6.536;2023-11-18T05:39:51;3.30;79.70
52034;DHT22;38045;52.988;6.536;2023-11-18T05:42:27;3.30;79.80
52034;DHT22;38045;52.988;6.536;2023-11-18T05:44:53;3.30;79.90
52034;DHT22;38045;52.988;6.536;2023-11-18T05:47:25;3.30;80.00
52034;DHT22;38045;52.988;6.536;2023-11-18T05:49:52;3.40;79.90
52034;DHT22;38045;52.988;6.536;2023-11-18T05:52:17;3.40;80.00
52034;DHT22;38045;52.988;6.536;2023-11-18T05:54:44;3.40;80.00
52034;DHT22;38045;52.988;6.536;2023-11-18T05:57:09;3.40;79.80
52034;DHT22;38045;52.988;6.536;2023-11-18T05:59:35;3.50;79.70
52034;DHT22;38045;52.988;6.536;2023-11-18T06:02:01;3.50;80.10
52034;DHT22;38045;52.988;6.536;2023-11-18T06:04:28;3.50;80.20
52034;DHT22;38045;52.988;6.536;2023-11-18T06:06:54;3.50;80.20
52034;DHT22;38045;52.988;6.536;2023-11-18T06:09:20;3.50;80.40
52034;DHT22;38045;52.988;6.536;2023-11-18T06:11:47;3.50;80.30
52034;DHT22;38045;52.988;6.536;2023-11-18T06:14:14;3.50;80.50
52034;DHT22;38045;52.988;6.536;2023-11-18T06:16:40;3.50;80.60
52034;DHT22;38045;52.988;6.536;2023-11-18T06:19:06;3.50;80.60
52034;DHT22;38045;52.988;6.536;2023-11-18T06:21:32;3.60;80.40
52034;DHT22;38045;52.988;6.536;2023-11-18T06:24:01;3.60;80.50
52034;DHT22;38045;52.988;6.536;2023-11-18T06:26:29;3.60;80.80
52034;DHT22;38045;52.988;6.536;2023-11-18T06:28:55;3.60;80.60
52034;DHT22;38045;52.988;6.536;2023-11-18T06:31:22;3.60;80.60
52034;DHT22;38045;52.988;6.536;2023-11-18T06:33:49;3.60;80.50
52034;DHT22;38045;52.988;6.536;2023-11-18T06:38:44;3.60;80.70
52034;DHT22;38045;52.988;6.536;2023-11-18T06:41:10;3.70;80.70
52034;DHT22;38045;52.988;6.536;2023-11-18T06:43:41;3.70;80.60
52034;DHT22;38045;52.988;6.536;2023-11-18T06:46:30;3.70;80.80
52034;DHT22;38045;52.988;6.536;2023-11-18T06:49:00;3.70;81.00
52034;DHT22;38045;52.988;6.536;2023-11-18T06:51:31;3.70;80.80
52034;DHT22;38045;52.988;6.536;2023-11-18T06:54:00;3.70;80.90
52034;DHT22;38045;52.988;6.536;2023-11-18T06:56:28;3.70;80.90
52034;DHT22;38045;52.988;6.536;2023-11-18T06:58:54;3.70;80.80
52034;DHT22;38045;52.988;6.536;2023-11-18T07:01:20;3.70;80.90
52034;DHT22;38045;52.988;6.536;2023-11-18T07:03:47;3.70;81.00
52034;DHT22;38045;52.988;6.536;2023-11-18T07:06:19;3.60;81.00
52034;DHT22;38045;52.988;6.536;2023-11-18T07:08:48;3.60;80.90
52034;DHT22;38045;52.988;6.536;2023-11-18T07:11:17;3.60;80.80
52034;DHT22;38045;52.988;6.536;2023-11-18T07:13:48;3.70;80.80
52034;DHT22;38045;52.988;6.536;2023-11-18T07:16:14;3.70;80.70
52034;DHT22;38045;52.988;6.536;2023-11-18T07:18:40;3.70;80.60
52034;DHT22;38045;52.988;6.536;2023-11-18T07:21:08;3.70;80.60
52034;DHT22;38045;52.988;6.536;2023-11-18T07:23:35;3.70;80.60
52034;DHT22;38045;52.988;6.536;2023-11-18T07:26:02;3.70;80.70
52034;DHT22;38045;52.988;6.536;2023-11-18T07:28:29;3.70;80.70
52034;DHT22;38045;52.988;6.536;2023-11-18T07:30:55;3.70;80.70
52034;DHT22;38045;52.988;6.536;2023-11-18T07:33:20;3.70;80.80
52034;DHT22;38045;52.988;6.536;2023-11-18T07:35:47;3.70;81.00
52034;DHT22;38045;52.988;6.536;2023-11-18T07:38:14;3.80;80.80
52034;DHT22;38045;52.988;6.536;2023-11-18T07:40:40;3.80;81.00
52034;DHT22;38045;52.988;6.536;2023-11-18T07:43:16;3.90;81.00
52034;DHT22;38045;52.988;6.536;2023-11-18T07:45:42;3.90;81.10
52034;DHT22;38045;52.988;6.536;2023-11-18T07:48:11;3.90;81.10
52034;DHT22;38045;52.988;6.536;2023-11-18T07:50:41;3.90;81.20
52034;DHT22;38045;52.988;6.536;2023-11-18T07:53:07;3.90;81.00
52034;DHT22;38045;52.988;6.536;2023-11-18T07:55:34;3.90;80.90
52034;DHT22;38045;52.988;6.536;2023-11-18T07:58:03;4.00;80.90
52034;DHT22;38045;52.988;6.536;2023-11-18T08:00:29;4.00;80.90
52034;DHT22;38045;52.988;6.536;2023-11-18T08:02:58;4.00;80.90
52034;DHT22;38045;52.988;6.536;2023-11-18T08:05:26;4.00;81.10
52034;DHT22;38045;52.988;6.536;2023-11-18T08:07:53;4.00;81.20
52034;DHT22;38045;52.988;6.536;2023-11-18T08:10:19;4.00;81.20
52034;DHT22;38045;52.988;6.536;2023-11-18T08:12:47;4.10;81.20
52034;DHT22;38045;52.988;6.536;2023-11-18T08:15:13;4.10;81.20
52034;DHT22;38045;52.988;6.536;2023-11-18T08:17:39;4.10;81.30
52034;DHT22;38045;52.988;6.536;2023-11-18T08:20:05;4.10;81.20
52034;DHT22;38045;52.988;6.536;2023-11-18T08:22:40;4.10;81.20
52034;DHT22;38045;52.988;6.536;2023-11-18T08:25:06;4.10;81.20
52034;DHT22;38045;52.988;6.536;2023-11-18T08:27:34;4.10;81.20
52034;DHT22;38045;52.988;6.536;2023-11-18T08:29:59;4.10;81.30
52034;DHT22;38045;52.988;6.536;2023-11-18T08:32:25;4.10;81.40
52034;DHT22;38045;52.988;6.536;2023-11-18T08:34:51;4.00;81.40
52034;DHT22;38045;52.988;6.536;2023-11-18T08:37:16;4.00;81.40
52034;DHT22;38045;52.988;6.536;2023-11-18T08:39:42;4.00;81.50
52034;DHT22;38045;52.988;6.536;2023-11-18T08:42:07;4.00;81.50
52034;DHT22;38045;52.988;6.536;2023-11-18T08:44:33;4.00;81.50
52034;DHT22;38045;52.988;6.536;2023-11-18T08:46:59;4.00;81.40
52034;DHT22;38045;52.988;6.536;2023-11-18T08:49:25;4.00;81.40
52034;DHT22;38045;52.988;6.536;2023-11-18T08:51:51;4.00;81.40
52034;DHT22;38045;52.988;6.536;2023-11-18T08:54:22;4.10;81.40
52034;DHT22;38045;52.988;6.536;2023-11-18T08:56:51;4.10;81.50
52034;DHT22;38045;52.988;6.536;2023-11-18T08:59:18;4.10;81.50
52034;DHT22;38045;52.988;6.536;2023-11-18T09:01:43;4.10;81.50
52034;DHT22;38045;52.988;6.536;2023-11-18T09:04:12;4.00;81.50
52034;DHT22;38045;52.988;6.536;2023-11-18T09:06:37;4.10;81.50
52034;DHT22;38045;52.988;6.536;2023-11-18T09:09:04;4.10;81.50
52034;DHT22;38045;52.988;6.536;2023-11-18T09:11:35;4.10;81.50
52034;DHT22;38045;52.988;6.536;2023-11-18T09:14:03;4.10;81.50
52034;DHT22;38045;52.988;6.536;2023-11-18T09:16:29;4.10;81.40
52034;DHT22;38045;52.988;6.536;2023-11-18T09:18:55;4.10;81.40
52034;DHT22;38045;52.988;6.536;2023-11-18T09:21:24;4.10;81.40
52034;DHT22;38045;52.988;6.536;2023-11-18T09:23:53;4.10;81.30
52034;DHT22;38045;52.988;6.536;2023-11-18T09:26:18;4.00;81.20
52034;DHT22;38045;52.988;6.536;2023-11-18T09:28:44;4.10;81.10
52034;DHT22;38045;52.988;6.536;2023-11-18T09:31:10;4.00;81.10
52034;DHT22;38045;52.988;6.536;2023-11-18T09:33:40;4.00;81.20
52034;DHT22;38045;52.988;6.536;2023-11-18T09:36:11;4.00;81.20
52034;DHT22;38045;52.988;6.536;2023-11-18T09:38:39;4.00;81.30
52034;DHT22;38045;52.988;6.536;2023-11-18T09:41:10;4.10;81.30
52034;DHT22;38045;52.988;6.536;2023-11-18T09:43:36;4.00;81.40
52034;DHT22;38045;52.988;6.536;2023-11-18T09:46:32;4.00;81.40
52034;DHT22;38045;52.988;6.536;2023-11-18T09:49:17;4.10;81.20
52034;DHT22;38045;52.988;6.536;2023-11-18T09:51:51;4.10;81.20
52034;DHT22;38045;52.988;6.536;2023-11-18T09:57:30;4.00;81.20
52034;DHT22;38045;52.988;6.536;2023-11-18T10:00:06;4.00;81.20
52034;DHT22;38045;52.988;6.536;2023-11-18T10:02:51;4.00;81.20
52034;DHT22;38045;52.988;6.536;2023-11-18T10:05:18;4.00;81.20
52034;DHT22;38045;52.988;6.536;2023-11-18T10:07:48;4.00;81.20
52034;DHT22;38045;52.988;6.536;2023-11-18T10:10:14;4.00;81.20
52034;DHT22;38045;52.988;6.536;2023-11-18T10:12:48;4.00;81.20
52034;DHT22;38045;52.988;6.536;2023-11-18T10:15:21;4.00;81.20
52034;DHT22;38045;52.988;6.536;2023-11-18T10:17:52;4.00;81.20
52034;DHT22;38045;52.988;6.536;2023-11-18T10:20:23;4.00;81.20
52034;DHT22;38045;52.988;6.536;2023-11-18T10:23:10;4.00;81.10
52034;DHT22;38045;52.988;6.536;2023-11-18T10:25:45;4.00;81.20
52034;DHT22;38045;52.988;6.536;2023-11-18T10:28:26;4.10;81.10
52034;DHT22;38045;52.988;6.536;2023-11-18T10:31:00;4.10;81.00
52034;DHT22;38045;52.988;6.536;2023-11-18T10:33:33;4.10;81.10
52034;DHT22;38045;52.988;6.536;2023-11-18T10:36:02;4.10;81.10
52034;DHT22;38045;52.988;6.536;2023-11-18T10:38:33;4.10;81.10
52034;DHT22;38045;52.988;6.536;2023-11-18T10:41:05;4.10;81.10
52034;DHT22;38045;52.988;6.536;2023-11-18T10:43:31;4.10;81.00
52034;DHT22;38045;52.988;6.536;2023-11-18T10:46:05;4.10;81.00
52034;DHT22;38045;52.988;6.536;2023-11-18T10:48:47;4.10;81.00
52034;DHT22;38045;52.988;6.536;2023-11-18T10:51:18;4.10;81.00
52034;DHT22;38045;52.988;6.536;2023-11-18T10:53:52;4.10;81.00
52034;DHT22;38045;52.988;6.536;2023-11-18T10:56:25;4.10;81.00
52034;DHT22;38045;52.988;6.536;2023-11-18T10:58:58;4.10;81.00
52034;DHT22;38045;52.988;6.536;2023-11-18T11:03:54;4.10;81.00
52034;DHT22;38045;52.988;6.536;2023-11-18T11:06:23;4.10;81.00
52034;DHT22;38045;52.988;6.536;2023-11-18T11:08:53;4.10;81.00
52034;DHT22;38045;52.988;6.536;2023-11-18T11:11:22;4.10;81.00
52034;DHT22;38045;52.988;6.536;2023-11-18T11:13:59;4.10;81.00
52034;DHT22;38045;52.988;6.536;2023-11-18T11:16:37;4.10;81.00
52034;DHT22;38045;52.988;6.536;2023-11-18T11:19:07;4.20;80.90
52034;DHT22;38045;52.988;6.536;2023-11-18T11:21:44;4.20;80.90
52034;DHT22;38045;52.988;6.536;2023-11-18T11:24:23;4.10;80.90
52034;DHT22;38045;52.988;6.536;2023-11-18T11:27:13;4.20;80.80
52034;DHT22;38045;52.988;6.536;2023-11-18T11:29:51;4.20;80.90
52034;DHT22;38045;52.988;6.536;2023-11-18T11:32:26;4.20;80.80
52034;DHT22;38045;52.988;6.536;2023-11-18T11:35:00;4.30;80.80
52034;DHT22;38045;52.988;6.536;2023-11-18T11:37:33;4.30;80.80
52034;DHT22;38045;52.988;6.536;2023-11-18T11:40:02;4.30;80.80
52034;DHT22;38045;52.988;6.536;2023-11-18T11:42:35;4.30;80.70
52034;DHT22;38045;52.988;6.536;2023-11-18T11:45:01;4.30;80.70
52034;DHT22;38045;52.988;6.536;2023-11-18T11:47:28;4.30;80.70
52034;DHT22;38045;52.988;6.536;2023-11-18T11:50:15;4.30;80.70
52034;DHT22;38045;52.988;6.536;2023-11-18T11:52:53;4.30;80.70
52034;DHT22;38045;52.988;6.536;2023-11-18T11:55:33;4.30;80.60
52034;DHT22;38045;52.988;6.536;2023-11-18T11:58:03;4.30;80.60
52034;DHT22;38045;52.988;6.536;2023-11-18T12:00:28;4.40;80.60
52034;DHT22;38045;52.988;6.536;2023-11-18T12:03:00;4.40;80.60
52034;DHT22;38045;52.988;6.536;2023-11-18T12:05:29;4.40;80.60
52034;DHT22;38045;52.988;6.536;2023-11-18T12:07:58;4.40;80.60
52034;DHT22;38045;52.988;6.536;2023-11-18T12:10:30;4.40;80.60
52034;DHT22;38045;52.988;6.536;2023-11-18T12:13:12;4.40;80.50
52034;DHT22;38045;52.988;6.536;2023-11-18T12:15:56;4.40;80.60
52034;DHT22;38045;52.988;6.536;2023-11-18T12:18:30;4.40;80.60
52034;DHT22;38045;52.988;6.536;2023-11-18T12:21:02;4.40;80.60
52034;DHT22;38045;52.988;6.536;2023-11-18T12:23:29;4.40;80.70
52034;DHT22;38045;52.988;6.536;2023-11-18T12:25:56;4.50;80.70
52034;DHT22;38045;52.988;6.536;2023-11-18T12:28:27;4.50;80.70
52034;DHT22;38045;52.988;6.536;2023-11-18T12:30:56;4.50;80.70
52034;DHT22;38045;52.988;6.536;2023-11-18T12:33:26;4.50;80.70
52034;DHT22;38045;52.988;6.536;2023-11-18T12:41:35;4.50;80.70
52034;DHT22;38045;52.988;6.536;2023-11-18T12:46:53;4.50;80.70
52034;DHT22;38045;52.988;6.536;2023-11-18T12:49:21;4.50;80.70
52034;DHT22;38045;52.988;6.536;2023-11-18T12:51:52;4.60;80.70
52034;DHT22;38045;52.988;6.536;2023-11-18T12:54:26;4.60;80.70
52034;DHT22;38045;52.988;6.536;2023-11-18T12:56:55;4.60;80.70
52034;DHT22;38045;52.988;6.536;2023-11-18T12:59:20;4.60;80.70
52034;DHT22;38045;52.988;6.536;2023-11-18T13:01:53;4.60;80.70
52034;DHT22;38045;52.988;6.536;2023-11-18T13:04:22;4.60;80.80
52034;DHT22;38045;52.988;6.536;2023-11-18T13:06:50;4.70;80.70
52034;DHT22;38045;52.988;6.536;2023-11-18T13:09:17;4.70;80.80
52034;DHT22;38045;52.988;6.536;2023-11-18T13:11:59;4.70;80.70
52034;DHT22;38045;52.988;6.536;2023-11-18T13:14:30;4.70;80.80
52034;DHT22;38045;52.988;6.536;2023-11-18T13:17:02;4.70;80.80
52034;DHT22;38045;52.988;6.536;2023-11-18T13:19:31;4.70;80.80
52034;DHT22;38045;52.988;6.536;2023-11-18T13:22:04;4.70;80.80
52034;DHT22;38045;52.988;6.536;2023-11-18T13:24:30;4.70;80.80
52034;DHT22;38045;52.988;6.536;2023-11-18T13:26:57;4.70;80.80
52034;DHT22;38045;52.988;6.536;2023-11-18T13:29:23;4.70;80.90
52034;DHT22;38045;52.988;6.536;2023-11-18T13:31:52;4.70;80.90
52034;DHT22;38045;52.988;6.536;2023-11-18T13:34:19;4.80;80.90
52034;DHT22;38045;52.988;6.536;2023-11-18T13:36:46;4.90;80.90
52034;DHT22;38045;52.988;6.536;2023-11-18T13:39:19;4.90;80.90
52034;DHT22;38045;52.988;6.536;2023-11-18T13:41:49;4.90;80.90
52034;DHT22;38045;52.988;6.536;2023-11-18T13:44:34;4.90;81.00
52034;DHT22;38045;52.988;6.536;2023-11-18T13:47:04;4.90;81.00
52034;DHT22;38045;52.988;6.536;2023-11-18T13:49:37;4.90;80.90
52034;DHT22;38045;52.988;6.536;2023-11-18T13:52:05;5.00;81.00
52034;DHT22;38045;52.988;6.536;2023-11-18T13:54:35;5.00;80.90
52034;DHT22;38045;52.988;6.536;2023-11-18T13:57:02;5.00;81.00
52034;DHT22;38045;52.988;6.536;2023-11-18T13:59:29;5.00;80.90
52034;DHT22;38045;52.988;6.536;2023-11-18T14:01:55;5.00;80.90
52034;DHT22;38045;52.988;6.536;2023-11-18T14:04:30;5.00;81.00
52034;DHT22;38045;52.988;6.536;2023-11-18T14:07:03;5.00;81.00
52034;DHT22;38045;52.988;6.536;2023-11-18T14:09:33;5.00;80.90
52034;DHT22;38045;52.988;6.536;2023-11-18T14:12:06;5.00;80.90
52034;DHT22;38045;52.988;6.536;2023-11-18T14:14:32;5.10;80.90
52034;DHT22;38045;52.988;6.536;2023-11-18T14:16:58;5.10;80.90
52034;DHT22;38045;52.988;6.536;2023-11-18T14:19:24;5.10;80.90
52034;DHT22;38045;52.988;6.536;2023-11-18T14:21:51;5.10;80.90
52034;DHT22;38045;52.988;6.536;2023-11-18T14:24:17;5.10;80.90
52034;DHT22;38045;52.988;6.536;2023-11-18T14:26:43;5.10;80.90
52034;DHT22;38045;52.988;6.536;2023-11-18T14:29:09;5.10;80.90
52034;DHT22;38045;52.988;6.536;2023-11-18T14:31:37;5.20;81.00
52034;DHT22;38045;52.988;6.536;2023-11-18T14:34:03;5.20;81.00
52034;DHT22;38045;52.988;6.536;2023-11-18T14:36:29;5.20;81.00
52034;DHT22;38045;52.988;6.536;2023-11-18T14:38:55;5.20;80.90
52034;DHT22;38045;52.988;6.536;2023-11-18T14:41:21;5.20;81.00
52034;DHT22;38045;52.988;6.536;2023-11-18T14:43:52;5.30;81.00
52034;DHT22;38045;52.988;6.536;2023-11-18T14:46:18;5.30;80.90
52034;DHT22;38045;52.988;6.536;2023-11-18T14:48:46;5.30;81.00
52034;DHT22;38045;52.988;6.536;2023-11-18T14:51:12;5.30;81.00
52034;DHT22;38045;52.988;6.536;2023-11-18T14:53:37;5.30;80.90
52034;DHT22;38045;52.988;6.536;2023-11-18T14:56:04;5.30;80.90
52034;DHT22;38045;52.988;6.536;2023-11-18T14:58:34;5.30;80.80
52034;DHT22;38045;52.988;6.536;2023-11-18T15:01:01;5.40;80.80
52034;DHT22;38045;52.988;6.536;2023-11-18T15:03:27;5.40;80.80
52034;DHT22;38045;52.988;6.536;2023-11-18T15:05:53;5.40;80.80
52034;DHT22;38045;52.988;6.536;2023-11-18T15:08:19;5.40;80.80
52034;DHT22;38045;52.988;6.536;2023-11-18T15:10:45;5.40;80.70
52034;DHT22;38045;52.988;6.536;2023-11-18T15:13:11;5.40;80.70
52034;DHT22;38045;52.988;6.536;2023-11-18T15:15:43;5.40;80.70
52034;DHT22;38045;52.988;6.536;2023-11-18T15:18:12;5.50;80.70
52034;DHT22;38045;52.988;6.536;2023-11-18T15:20:43;5.50;80.70
52034;DHT22;38045;52.988;6.536;2023-11-18T15:23:13;5.50;80.60
52034;DHT22;38045;52.988;6.536;2023-11-18T15:25:39;5.50;80.60
52034;DHT22;38045;52.988;6.536;2023-11-18T15:28:05;5.50;80.60
52034;DHT22;38045;52.988;6.536;2023-11-18T15:30:38;5.50;80.60
52034;DHT22;38045;52.988;6.536;2023-11-18T15:33:07;5.50;80.60
52034;DHT22;38045;52.988;6.536;2023-11-18T15:35:36;5.50;80.60
52034;DHT22;38045;52.988;6.536;2023-11-18T15:38:04;5.50;80.60
52034;DHT22;38045;52.988;6.536;2023-11-18T15:40:34;5.50;80.60
52034;DHT22;38045;52.988;6.536;2023-11-18T15:43:05;5.60;80.70
52034;DHT22;38045;52.988;6.536;2023-11-18T15:45:37;5.60;80.60
52034;DHT22;38045;52.988;6.536;2023-11-18T15:48:03;5.60;80.60
52034;DHT22;38045;52.988;6.536;2023-11-18T15:50:35;5.60;80.70
52034;DHT22;38045;52.988;6.536;2023-11-18T15:53:03;5.60;80.70
52034;DHT22;38045;52.988;6.536;2023-11-18T15:55:29;5.60;80.70
52034;DHT22;38045;52.988;6.536;2023-11-18T15:57:56;5.60;80.80
52034;DHT22;38045;52.988;6.536;2023-11-18T16:00:24;5.60;80.90
52034;DHT22;38045;52.988;6.536;2023-11-18T16:02:54;5.60;80.90
52034;DHT22;38045;52.988;6.536;2023-11-18T16:05:24;5.70;80.80
52034;DHT22;38045;52.988;6.536;2023-11-18T16:07:51;5.70;80.90
52034;DHT22;38045;52.988;6.536;2023-11-18T16:10:17;5.70;80.90
52034;DHT22;38045;52.988;6.536;2023-11-18T16:12:57;5.70;80.90